Time;durP1;ratioP1;P1;durP2;ratioP2;P2;SDS_P1;SDS_P2;PMS_P1;PMS_P2;Temp;Humidity;BMP_temperature;BMP_pressure;BME280_temperature;BME280_humidity;BME280_pressure;Samples;Min_cycle;Max_cycle;Signal;HPM_P1;HPM_P2
2022/07/30 00:02:23;;;;;;;11.73;9.25;;;;;;;18.61;98.69;94674.80;1666786;85;21067;-57
2022/07/30 00:04:53;;;;;;;13.53;10.05;;;;;;;18.53;99.07;94666.79;1676425;85;21050;-57
2022/07/30 00:07:21;;;;;;;12.18;8.58;;;;;;;18.46;99.21;94663.07;1671099;84;21451;-56
2022/07/30 00:09:49;;;;;;;13.95;8.98;;;;;;;18.40;99.77;94666.47;1671331;85;21149;-58
2022/07/30 00:12:18;;;;;;;12.35;9.78;;;;;;;18.37;100.00;94664.69;1679799;84;21266;-57
2022/07/30 00:14:48;;;;;;;11.38;8.88;;;;;;;18.35;100.00;94655.30;1669125;84;21447;-56
2022/07/30 00:17:18;;;;;;;9.28;8.30;;;;;;;18.32;100.00;94655.66;1651561;85;21019;-57
2022/07/30 00:19:46;;;;;;;11.75;8.20;;;;;;;18.30;100.00;94649.08;1670905;85;21474;-58
2022/07/30 00:22:15;;;;;;;9.33;7.95;;;;;;;18.28;100.00;94644.64;1670800;85;21157;-59
2022/07/30 00:24:44;;;;;;;10.48;8.25;;;;;;;18.29;100.00;94649.69;1675639;85;21818;-58
2022/07/30 00:27:13;;;;;;;10.10;7.65;;;;;;;18.27;100.00;94649.43;1662380;85;21531;-57
2022/07/30 00:29:41;;;;;;;8.23;7.42;;;;;;;18.21;100.00;94637.48;1666159;84;20983;-57
2022/07/30 00:32:09;;;;;;;9.38;7.20;;;;;;;18.09;100.00;94637.15;1675444;85;20996;-58
2022/07/30 00:34:37;;;;;;;8.85;7.12;;;;;;;18.00;100.00;94648.50;1672684;85;20972;-57
2022/07/30 00:37:06;;;;;;;8.85;7.95;;;;;;;17.91;100.00;94638.94;1676691;84;21171;-57
2022/07/30 00:39:35;;;;;;;13.48;9.43;;;;;;;17.82;100.00;94633.59;1672980;84;21015;-56
2022/07/30 00:42:04;;;;;;;13.43;8.18;;;;;;;17.79;100.00;94637.36;1672694;84;21590;-57
2022/07/30 00:44:33;;;;;;;11.18;8.43;;;;;;;17.80;100.00;94634.71;1669797;85;21518;-57
2022/07/30 00:47:01;;;;;;;9.33;7.42;;;;;;;17.79;100.00;94638.75;1667377;85;20975;-59
2022/07/30 00:49:33;;;;;;;9.37;7.97;;;;;;;17.78;100.00;94635.20;1677682;84;21339;-57
2022/07/30 00:52:01;;;;;;;11.97;8.80;;;;;;;17.77;100.00;94632.90;1651885;84;21142;-57
2022/07/30 00:54:30;;;;;;;15.08;9.33;;;;;;;17.79;100.00;94633.19;1641473;85;20963;-57
2022/07/30 00:56:58;;;;;;;8.83;8.00;;;;;;;17.76;100.00;94638.33;1636693;85;21020;-57
2022/07/30 00:59:27;;;;;;;9.13;8.23;;;;;;;17.71;100.00;94626.55;1664192;85;20959;-57
2022/07/30 01:01:55;;;;;;;9.83;7.87;;;;;;;17.68;100.00;94619.94;1668277;86;21172;-57
2022/07/30 01:04:24;;;;;;;15.60;8.63;;;;;;;17.66;100.00;94616.14;1667774;85;21090;-57
2022/07/30 01:06:53;;;;;;;11.60;8.78;;;;;;;17.67;100.00;94614.88;1667428;84;21455;-57
2022/07/30 01:09:22;;;;;;;14.15;8.95;;;;;;;17.64;100.00;94611.70;1648549;84;21063;-57
2022/07/30 01:11:54;;;;;;;11.08;8.73;;;;;;;17.59;100.00;94610.41;1646613;85;21043;-56
2022/07/30 01:14:22;;;;;;;12.93;8.53;;;;;;;17.58;100.00;94612.28;1654403;85;21221;-58
2022/07/30 01:16:52;;;;;;;11.25;8.85;;;;;;;17.63;100.00;94610.19;1666383;85;21210;-57
2022/07/30 01:22:29;;;;;;;11.18;7.83;;;;;;;17.72;100.00;94611.37;1662419;84;21027;-59
2022/07/30 01:25:16;;;;;;;11.63;8.73;;;;;;;17.73;100.00;94602.54;1670197;84;21495;-58
2022/07/30 01:27:58;;;;;;;14.20;8.35;;;;;;;17.72;100.00;94603.02;1641422;85;21903;-58
2022/07/30 01:30:28;;;;;;;9.05;7.83;;;;;;;17.67;100.00;94599.58;1672172;85;21015;-57
2022/07/30 01:32:57;;;;;;;10.18;8.05;;;;;;;17.61;100.00;94598.80;1678443;85;20982;-57
2022/07/30 01:35:27;;;;;;;9.50;7.90;;;;;;;17.57;100.00;94601.02;1652531;84;21464;-57
2022/07/30 01:37:57;;;;;;;15.20;7.87;;;;;;;17.54;100.00;94597.23;1659460;85;21007;-57
2022/07/30 01:40:26;;;;;;;8.18;7.08;;;;;;;17.54;100.00;94600.62;1659029;85;21539;-57
2022/07/30 01:42:57;;;;;;;9.55;8.58;;;;;;;17.50;100.00;94598.06;1664987;84;21467;-57
2022/07/30 01:45:27;;;;;;;10.18;8.48;;;;;;;17.46;100.00;94600.31;1658068;85;21066;-57
2022/07/30 01:47:59;;;;;;;12.80;8.50;;;;;;;17.41;100.00;94606.60;1659730;84;21022;-57
2022/07/30 01:50:28;;;;;;;11.97;8.08;;;;;;;17.37;100.00;94605.30;1650460;85;21484;-57
2022/07/30 01:52:56;;;;;;;10.48;8.15;;;;;;;17.36;100.00;94598.98;1662142;85;21868;-57
2022/07/30 01:55:31;;;;;;;16.97;9.43;;;;;;;17.33;100.00;94601.95;1657262;85;21080;-57
2022/07/30 01:57:59;;;;;;;10.88;8.15;;;;;;;17.29;100.00;94602.81;1652868;85;21420;-57
2022/07/30 02:00:30;;;;;;;9.63;7.58;;;;;;;17.26;100.00;94603.16;1656076;84;20983;-58
2022/07/30 02:02:59;;;;;;;12.20;8.28;;;;;;;17.23;100.00;94595.03;1677524;85;21024;-57
2022/07/30 02:05:27;;;;;;;9.55;8.38;;;;;;;17.21;100.00;94594.77;1668706;85;21777;-57
2022/07/30 02:08:18;;;;;;;9.58;8.40;;;;;;;17.19;100.00;94597.28;1667038;85;21078;-57
2022/07/30 02:10:52;;;;;;;13.85;9.33;;;;;;;17.14;100.00;94595.23;1666711;84;21447;-56
2022/07/30 02:13:24;;;;;;;8.13;7.33;;;;;;;17.11;100.00;94590.66;1664936;85;21358;-57
2022/07/30 02:16:01;;;;;;;8.50;7.47;;;;;;;17.07;100.00;94586.70;1648495;86;21074;-57
2022/07/30 02:18:44;;;;;;;15.85;8.25;;;;;;;17.06;100.00;94580.27;1659888;85;21337;-57
2022/07/30 02:21:17;;;;;;;13.95;8.63;;;;;;;17.05;100.00;94585.66;1664232;84;21067;-58
2022/07/30 02:23:45;;;;;;;16.32;7.45;;;;;;;17.02;100.00;94593.59;1651597;85;21509;-58
2022/07/30 02:26:18;;;;;;;10.75;7.78;;;;;;;16.99;100.00;94589.03;1644285;86;21130;-58
2022/07/30 02:28:50;;;;;;;9.48;7.62;;;;;;;16.96;100.00;94585.23;1641082;86;21020;-58
2022/07/30 02:31:21;;;;;;;10.45;8.40;;;;;;;16.95;100.00;94589.88;1629904;87;21216;-57
2022/07/30 02:33:50;;;;;;;10.08;8.20;;;;;;;16.93;100.00;94593.14;1644587;86;21432;-57
2022/07/30 02:36:20;;;;;;;10.40;8.08;;;;;;;16.88;100.00;94584.77;1638265;86;21055;-58
2022/07/30 02:38:49;;;;;;;11.90;7.72;;;;;;;16.83;100.00;94578.52;1648466;86;21478;-57
2022/07/30 02:41:21;;;;;;;9.28;7.40;;;;;;;16.82;100.00;94579.77;1653131;86;21008;-58
2022/07/30 02:43:49;;;;;;;13.30;8.47;;;;;;;16.73;100.00;94579.31;1633137;86;21020;-58
2022/07/30 02:46:18;;;;;;;9.23;8.13;;;;;;;16.73;100.00;94579.31;1641117;85;21440;-58
2022/07/30 02:48:47;;;;;;;9.10;7.85;;;;;;;16.70;100.00;94586.50;1641599;86;21024;-58
2022/07/30 02:51:18;;;;;;;9.15;7.25;;;;;;;16.65;100.00;94587.19;1671923;84;21118;-58
2022/07/30 02:53:48;;;;;;;9.65;8.40;;;;;;;16.63;100.00;94587.69;1662502;85;21042;-58
2022/07/30 02:56:17;;;;;;;11.53;9.73;;;;;;;16.62;100.00;94579.83;1650588;85;21299;-60
2022/07/30 02:58:45;;;;;;;11.30;8.10;;;;;;;16.61;100.00;94578.31;1640646;85;21015;-58
2022/07/30 03:01:16;;;;;;;11.18;8.25;;;;;;;16.59;100.00;94581.59;1670765;85;21511;-57
2022/07/30 03:03:44;;;;;;;12.43;7.35;;;;;;;16.62;100.00;94590.94;1659591;85;21018;-57
2022/07/30 03:06:14;;;;;;;9.88;7.90;;;;;;;16.64;100.00;94581.48;1671807;85;21002;-57
2022/07/30 03:08:44;;;;;;;11.83;8.20;;;;;;;16.65;100.00;94577.45;1657768;84;21125;-57
2022/07/30 03:11:13;;;;;;;8.30;7.50;;;;;;;16.64;100.00;94577.33;1625837;85;21058;-57
2022/07/30 03:13:42;;;;;;;11.93;7.87;;;;;;;16.63;100.00;94579.35;1663409;84;21091;-58
2022/07/30 03:16:11;;;;;;;10.85;8.25;;;;;;;16.68;100.00;94576.47;1661952;85;20980;-58
2022/07/30 03:18:38;;;;;;;13.00;7.67;;;;;;;16.73;100.00;94567.45;1636096;85;20975;-58
2022/07/30 03:21:09;;;;;;;11.35;8.10;;;;;;;16.78;100.00;94570.91;1646343;86;20960;-59
2022/07/30 03:23:37;;;;;;;14.38;8.40;;;;;;;16.83;100.00;94570.18;1650968;86;21520;-58
2022/07/30 03:26:07;;;;;;;10.55;8.75;;;;;;;16.89;100.00;94571.02;1672176;85;21045;-57
2022/07/30 03:28:38;;;;;;;12.07;9.33;;;;;;;16.89;100.00;94571.02;1675577;85;21640;-57
2022/07/30 03:31:06;;;;;;;16.97;10.78;;;;;;;16.82;100.00;94572.21;1663079;84;21125;-57
2022/07/30 03:33:35;;;;;;;21.93;11.43;;;;;;;16.77;100.00;94572.16;1677249;84;21824;-57
2022/07/30 03:36:04;;;;;;;15.20;10.53;;;;;;;16.75;100.00;94580.22;1651150;85;21097;-57
2022/07/30 03:38:33;;;;;;;14.13;9.95;;;;;;;16.76;100.00;94577.58;1658940;84;21053;-57
2022/07/30 03:41:06;;;;;;;22.07;10.28;;;;;;;16.75;100.00;94566.33;1658668;85;21015;-57
2022/07/30 03:43:35;;;;;;;18.65;10.35;;;;;;;16.75;100.00;94576.05;1659765;85;21526;-57
2022/07/30 03:46:05;;;;;;;12.85;9.18;;;;;;;16.69;100.00;94562.11;1657767;84;21194;-57
2022/07/30 03:48:37;;;;;;;11.40;8.30;;;;;;;16.68;100.00;94570.30;1659396;84;21081;-58
2022/07/30 03:51:06;;;;;;;13.80;9.00;;;;;;;16.69;100.00;94573.86;1665529;85;21098;-57
2022/07/30 03:53:35;;;;;;;15.15;9.15;;;;;;;16.70;100.00;94569.83;1630624;86;21066;-57
2022/07/30 03:56:22;;;;;;;13.30;9.38;;;;;;;16.69;100.00;94557.19;1667012;85;21069;-56
2022/07/30 03:59:02;;;;;;;20.32;9.18;;;;;;;16.70;100.00;94553.16;1659603;84;21270;-57
2022/07/30 04:01:32;;;;;;;10.35;8.43;;;;;;;16.68;100.00;94559.20;1655040;86;20969;-57
2022/07/30 04:04:08;;;;;;;14.68;8.88;;;;;;;16.67;100.00;94560.45;1676840;84;21142;-57
2022/07/30 04:06:39;;;;;;;14.23;9.48;;;;;;;16.68;100.00;94555.64;1684861;85;21522;-57
2022/07/30 04:09:10;;;;;;;17.45;10.90;;;;;;;16.71;100.00;94552.66;1660971;84;21568;-58
2022/07/30 04:11:39;;;;;;;12.25;10.10;;;;;;;16.73;100.00;94550.78;1661037;85;21092;-57
2022/07/30 04:14:10;;;;;;;14.38;9.48;;;;;;;16.73;100.00;94550.14;1673377;84;20998;-57
2022/07/30 04:16:48;;;;;;;14.63;9.35;;;;;;;16.77;100.00;94556.23;1663491;85;20975;-56
2022/07/30 04:19:24;;;;;;;15.48;9.20;;;;;;;16.77;100.00;94549.93;1651990;85;21021;-57
2022/07/30 04:21:54;;;;;;;12.88;8.65;;;;;;;16.81;100.00;94548.46;1657971;85;21534;-57
2022/07/30 04:24:24;;;;;;;14.58;9.10;;;;;;;16.87;100.00;94547.12;1663949;85;21117;-58
2022/07/30 04:26:52;;;;;;;12.28;8.45;;;;;;;16.97;100.00;94547.84;1646825;86;21095;-57
2022/07/30 04:29:21;;;;;;;8.95;8.05;;;;;;;17.09;100.00;94550.09;1622748;86;20994;-57
2022/07/30 04:31:50;;;;;;;12.73;8.63;;;;;;;17.17;100.00;94535.86;1651054;85;21090;-57
2022/07/30 04:34:29;;;;;;;13.22;8.53;;;;;;;17.23;100.00;94533.87;1645071;85;21098;-57
2022/07/30 04:36:59;;;;;;;8.90;8.00;;;;;;;17.34;100.00;94540.94;1653951;85;21247;-57
2022/07/30 04:39:28;;;;;;;9.68;8.30;;;;;;;17.44;100.00;94538.86;1658912;85;21475;-57
2022/07/30 04:41:56;;;;;;;8.90;7.90;;;;;;;17.49;100.00;94531.81;1658779;85;21530;-57
2022/07/30 04:44:33;;;;;;;11.05;9.05;;;;;;;17.57;100.00;94534.25;1652380;86;21117;-60
2022/07/30 04:47:03;;;;;;;11.78;8.68;;;;;;;17.64;100.00;94532.41;1649209;85;21067;-56
2022/07/30 04:49:34;;;;;;;10.15;7.17;;;;;;;17.68;100.00;94529.50;1677015;85;21067;-58
2022/07/30 04:52:03;;;;;;;8.85;7.83;;;;;;;17.74;100.00;94534.49;1676884;84;21044;-58
2022/07/30 04:54:49;;;;;;;13.78;8.03;;;;;;;17.78;100.00;94539.19;1664964;85;21454;-57
2022/07/30 04:57:17;;;;;;;10.75;8.13;;;;;;;17.83;99.64;94533.52;1650704;84;21510;-57
2022/07/30 04:59:44;;;;;;;8.60;7.70;;;;;;;17.84;98.65;94540.61;1650606;85;20981;-56
2022/07/30 05:02:13;;;;;;;8.43;7.58;;;;;;;17.82;98.01;94538.31;1652021;86;21908;-57
2022/07/30 05:04:41;;;;;;;9.18;7.12;;;;;;;17.82;97.68;94538.96;1662347;84;21475;-57
2022/07/30 05:07:12;;;;;;;9.00;8.08;;;;;;;17.82;97.83;94532.00;1673621;85;21086;-56
2022/07/30 05:09:43;;;;;;;16.95;11.25;;;;;;;17.82;97.77;94532.75;1651476;85;21184;-57
2022/07/30 05:12:12;;;;;;;16.73;9.43;;;;;;;17.86;98.22;94533.27;1643064;86;21114;-57
2022/07/30 05:14:41;;;;;;;13.75;7.78;;;;;;;18.00;98.17;94531.58;1661681;85;21128;-58
2022/07/30 05:17:11;;;;;;;12.23;9.03;;;;;;;18.15;97.52;94529.36;1674731;84;21019;-58
2022/07/30 05:19:41;;;;;;;8.58;7.53;;;;;;;18.30;96.22;94535.63;1646902;87;20971;-58
2022/07/30 05:22:09;;;;;;;8.20;7.40;;;;;;;18.39;94.83;94536.80;1659805;85;20975;-58
2022/07/30 05:24:38;;;;;;;8.60;7.80;;;;;;;18.41;93.76;94530.09;1657866;85;20952;-57
2022/07/30 05:27:06;;;;;;;10.88;8.43;;;;;;;18.47;92.62;94526.69;1671354;84;21228;-58
2022/07/30 05:29:35;;;;;;;9.03;7.17;;;;;;;18.53;92.42;94519.12;1665710;84;21022;-60
2022/07/30 05:32:07;;;;;;;11.80;8.03;;;;;;;18.66;91.99;94522.16;1641016;85;21015;-57
2022/07/30 05:34:36;;;;;;;9.63;8.03;;;;;;;18.83;91.61;94528.52;1675270;84;21014;-58
2022/07/30 05:37:05;;;;;;;8.45;7.37;;;;;;;18.93;90.32;94525.62;1667932;84;21062;-58
2022/07/30 05:39:33;;;;;;;10.75;8.15;;;;;;;18.97;89.69;94530.31;1654697;85;21151;-58
2022/07/30 05:42:19;;;;;;;8.95;7.20;;;;;;;19.04;89.26;94529.05;1658865;85;21074;-57
2022/07/30 05:44:51;;;;;;;15.03;7.47;;;;;;;19.11;88.98;94534.11;1677985;84;21021;-57
2022/07/30 05:47:19;;;;;;;8.50;7.60;;;;;;;19.20;88.60;94531.85;1650866;85;21050;-58
2022/07/30 05:49:49;;;;;;;9.75;8.28;;;;;;;19.26;87.87;94540.22;1666412;85;20962;-58
2022/07/30 05:52:18;;;;;;;16.95;7.83;;;;;;;19.28;87.12;94539.85;1675282;84;21209;-58
2022/07/30 05:54:46;;;;;;;7.92;7.12;;;;;;;19.28;86.98;94543.27;1651075;85;21054;-57
2022/07/30 05:57:25;;;;;;;8.25;7.45;;;;;;;19.34;86.83;94530.84;1656160;85;21023;-57
2022/07/30 05:59:53;;;;;;;8.78;7.30;;;;;;;19.44;86.50;94532.11;1668591;85;21230;-59
2022/07/30 06:02:32;;;;;;;16.60;8.55;;;;;;;19.54;86.20;94534.73;1653434;84;21676;-57
2022/07/30 06:05:20;;;;;;;10.58;7.45;;;;;;;19.67;85.47;94533.58;1632433;86;20958;-60
2022/07/30 06:07:49;;;;;;;8.38;6.53;;;;;;;19.77;85.38;94533.41;1654512;85;20983;-60
2022/07/30 06:10:18;;;;;;;7.78;6.20;;;;;;;19.88;84.73;94531.22;1654183;84;21030;-58
2022/07/30 06:12:47;;;;;;;9.08;6.90;;;;;;;20.00;84.04;94531.33;1669209;85;20976;-58
2022/07/30 06:15:17;;;;;;;11.45;7.80;;;;;;;20.08;83.25;94527.52;1663144;84;21024;-58
2022/07/30 06:17:46;;;;;;;8.80;7.28;;;;;;;20.13;82.92;94535.11;1666631;85;21255;-59
2022/07/30 06:20:18;;;;;;;10.68;6.65;;;;;;;20.21;82.70;94527.07;1672159;85;21581;-58
2022/07/30 06:22:56;;;;;;;10.50;7.35;;;;;;;20.32;82.41;94534.64;1662908;84;21478;-59
2022/07/30 06:25:27;;;;;;;9.30;6.60;;;;;;;20.39;81.78;94523.69;1681148;85;21034;-58
2022/07/30 06:27:57;;;;;;;7.65;6.85;;;;;;;20.48;81.10;94523.40;1672412;84;21183;-59
2022/07/30 06:30:27;;;;;;;8.65;7.12;;;;;;;20.57;80.36;94514.69;1652551;84;21043;-59
2022/07/30 06:32:56;;;;;;;10.35;7.28;;;;;;;20.67;79.82;94515.91;1668334;85;21532;-59
2022/07/30 06:35:24;;;;;;;11.12;7.10;;;;;;;20.76;79.12;94521.18;1665851;85;21190;-59
2022/07/30 06:37:53;;;;;;;8.00;6.53;;;;;;;20.87;78.49;94519.75;1658455;85;21167;-58
2022/07/30 06:40:23;;;;;;;9.65;8.20;;;;;;;21.01;77.89;94518.64;1655661;85;21082;-58
2022/07/30 06:42:56;;;;;;;11.83;7.62;;;;;;;21.11;77.55;94513.48;1671512;84;21462;-59
2022/07/30 06:45:33;;;;;;;8.40;6.72;;;;;;;21.28;77.52;94512.70;1647887;85;21015;-59
2022/07/30 06:48:20;;;;;;;7.67;6.87;;;;;;;21.41;76.79;94505.82;1632417;86;21432;-58
2022/07/30 06:50:50;;;;;;;14.15;8.00;;;;;;;21.51;76.14;94506.35;1666747;84;21031;-59
2022/07/30 06:53:19;;;;;;;10.90;7.87;;;;;;;21.64;75.36;94509.31;1661017;84;21072;-59
2022/07/30 06:55:57;;;;;;;13.05;7.85;;;;;;;21.75;75.67;94498.64;1663951;85;21173;-59
2022/07/30 06:58:28;;;;;;;14.73;8.18;;;;;;;21.93;75.54;94497.93;1666328;84;21015;-59
2022/07/30 07:01:01;;;;;;;9.03;7.00;;;;;;;22.10;74.99;94492.27;1640137;86;21480;-58
2022/07/30 07:03:31;;;;;;;10.10;6.40;;;;;;;22.28;73.91;94487.33;1652108;85;20975;-58
2022/07/30 07:06:00;;;;;;;13.70;7.60;;;;;;;22.43;72.74;94483.44;1656659;85;21496;-59
2022/07/30 07:08:30;;;;;;;7.53;6.80;;;;;;;22.58;72.73;94481.71;1667259;84;21291;-59
2022/07/30 07:11:00;;;;;;;7.50;6.47;;;;;;;22.74;71.88;94477.91;1644435;86;20995;-60
2022/07/30 07:13:31;;;;;;;7.40;6.70;;;;;;;22.91;71.37;94479.82;1652033;85;21175;-58
2022/07/30 07:15:59;;;;;;;9.48;7.08;;;;;;;23.08;70.91;94478.91;1633150;85;20984;-59
2022/07/30 07:18:29;;;;;;;13.32;7.50;;;;;;;23.25;70.35;94473.81;1637019;86;21008;-59
2022/07/30 07:21:01;;;;;;;;;;;;;;;23.44;70.11;94473.10;1650734;86;21094;-58
2022/07/30 07:23:31;;;;;;;7.53;5.22;;;;;;;23.70;68.25;94468.14;1640620;86;20196;-58
2022/07/30 07:26:01;;;;;;;8.23;6.53;;;;;;;23.88;65.26;94470.13;1586168;89;21455;-59
2022/07/30 07:28:29;;;;;;;6.70;6.08;;;;;;;23.98;63.87;94460.09;1654500;86;21007;-58
2022/07/30 07:30:58;;;;;;;8.85;7.35;;;;;;;24.06;64.34;94455.31;1640919;85;20979;-58
2022/07/30 07:33:26;;;;;;;9.68;6.25;;;;;;;24.24;64.36;94458.64;1645140;86;21189;-59
2022/07/30 07:35:56;;;;;;;8.25;6.85;;;;;;;24.53;65.25;94460.36;1640220;86;21105;-59
2022/07/30 07:38:30;;;;;;;7.45;6.62;;;;;;;24.79;65.41;94457.45;1633250;87;21065;-59
2022/07/30 07:40:58;;;;;;;6.72;6.08;;;;;;;25.06;64.38;94453.89;1666662;85;21093;-59
2022/07/30 07:43:27;;;;;;;14.45;6.65;;;;;;;25.26;63.93;94457.39;1604782;87;21051;-60
2022/07/30 07:45:58;;;;;;;10.43;6.83;;;;;;;25.43;63.27;94450.05;1661462;85;21453;-58
2022/07/30 07:48:29;;;;;;;9.93;7.28;;;;;;;25.64;63.56;94447.21;1636214;85;21015;-59
2022/07/30 07:51:15;;;;;;;9.03;6.58;;;;;;;25.81;61.99;94442.63;1673111;84;20994;-59
2022/07/30 07:53:42;;;;;;;8.58;5.75;;;;;;;25.96;60.91;94441.34;1673673;84;21125;-59
2022/07/30 07:56:10;;;;;;;12.53;7.42;;;;;;;26.10;61.06;94435.03;1654349;86;20984;-60
2022/07/30 07:58:40;;;;;;;8.38;6.35;;;;;;;26.29;60.71;94438.33;1643280;85;21043;-60
2022/07/30 08:01:11;;;;;;;11.22;6.87;;;;;;;26.48;60.05;94431.76;1661266;85;21140;-59
2022/07/30 08:03:50;;;;;;;12.58;7.22;;;;;;;26.63;59.00;94440.28;1643643;85;21055;-59
2022/07/30 08:06:36;;;;;;;15.28;7.50;;;;;;;26.68;58.62;94445.00;1659973;84;20970;-61
2022/07/30 08:09:06;;;;;;;12.75;7.58;;;;;;;26.63;58.49;94440.28;1634617;85;21067;-60
2022/07/30 08:11:37;;;;;;;9.33;6.92;;;;;;;26.59;58.61;94437.08;1650047;86;21278;-59
2022/07/30 08:14:24;;;;;;;10.40;7.22;;;;;;;26.60;58.23;94438.59;1673262;85;21034;-59
2022/07/30 08:16:55;;;;;;;7.95;6.37;;;;;;;26.52;57.83;94444.10;1638347;84;21479;-59
2022/07/30 08:19:28;;;;;;;8.20;6.97;;;;;;;26.38;57.79;94435.64;1639636;85;21556;-58
2022/07/30 08:22:10;;;;;;;8.48;6.70;;;;;;;26.34;58.45;94438.07;1677309;85;21459;-59
2022/07/30 08:24:39;;;;;;;7.37;6.65;;;;;;;26.42;57.86;94432.56;1652648;84;21008;-60
2022/07/30 08:27:09;;;;;;;7.33;6.62;;;;;;;26.44;57.81;94439.81;1643010;85;21122;-59
2022/07/30 08:29:38;;;;;;;8.60;6.87;;;;;;;26.36;58.24;94432.62;1641595;85;21093;-58
2022/07/30 08:32:06;;;;;;;10.70;7.15;;;;;;;26.29;58.29;94432.68;1682529;84;21569;-61
2022/07/30 08:34:38;;;;;;;13.45;7.95;;;;;;;26.18;58.88;94433.02;1674447;84;21656;-59
2022/07/30 08:37:06;;;;;;;18.55;8.38;;;;;;;26.05;59.64;94432.36;1651426;86;21428;-59
2022/07/30 08:39:36;;;;;;;17.05;8.25;;;;;;;25.96;60.11;94432.22;1651818;86;21050;-60
2022/07/30 08:42:05;;;;;;;11.43;7.80;;;;;;;25.84;61.04;94428.86;1672899;84;21097;-58
2022/07/30 08:44:33;;;;;;;11.40;7.10;;;;;;;25.65;61.87;94426.91;1661499;84;21550;-58
2022/07/30 08:47:02;;;;;;;16.87;8.83;;;;;;;25.50;62.91;94430.28;1662209;84;21139;-58
2022/07/30 08:49:50;;;;;;;14.95;8.68;;;;;;;25.37;63.74;94424.73;1658141;85;22130;-59
2022/07/30 08:52:19;;;;;;;14.03;9.18;;;;;;;25.22;64.63;94420.38;1660372;84;21124;-58
2022/07/30 08:54:50;;;;;;;12.45;9.13;;;;;;;25.07;65.45;94416.75;1671999;84;21549;-58
2022/07/30 08:57:18;;;;;;;11.33;9.00;;;;;;;24.96;66.75;94413.45;1645574;86;21076;-58
2022/07/30 08:59:50;;;;;;;10.48;9.10;;;;;;;24.85;67.55;94405.27;1651694;85;21055;-59
2022/07/30 09:02:18;;;;;;;11.63;9.03;;;;;;;24.80;68.49;94397.72;1646229;86;21181;-59
2022/07/30 09:04:47;;;;;;;11.80;9.03;;;;;;;24.80;70.01;94404.75;1653036;85;21027;-60
2022/07/30 09:07:18;;;;;;;13.65;9.45;;;;;;;24.79;69.92;94400.43;1590025;88;21193;-59
2022/07/30 09:09:46;;;;;;;13.03;9.48;;;;;;;24.78;70.60;94396.11;1613263;87;21554;-59
2022/07/30 09:12:40;;;;;;;10.30;8.23;;;;;;;24.81;71.58;94399.23;1624565;87;21501;-58
2022/07/30 09:15:14;;;;;;;10.55;8.25;;;;;;;24.89;72.09;94399.41;1668980;85;21448;-59
2022/07/30 09:17:55;;;;;;;15.60;9.03;;;;;;;24.91;72.30;94391.83;1655442;85;21121;-59
2022/07/30 09:20:26;;;;;;;12.10;8.25;;;;;;;24.89;71.65;94379.70;1663548;85;21159;-58
2022/07/30 09:22:57;;;;;;;25.25;8.83;;;;;;;24.87;71.12;94384.36;1681384;85;21026;-60
2022/07/30 09:25:45;;;;;;;9.98;8.80;;;;;;;24.87;71.50;94393.58;1671418;85;21263;-62
2022/07/30 09:28:33;;;;;;;17.27;8.10;;;;;;;24.86;70.88;94389.89;1672854;84;21069;-60
2022/07/30 09:31:17;;;;;;;9.80;8.55;;;;;;;24.88;70.10;94388.69;1664779;85;20987;-58
2022/07/30 09:33:56;;;;;;;10.50;8.85;;;;;;;24.87;69.36;94394.98;1627910;87;21026;-58
2022/07/30 09:36:44;;;;;;;12.33;8.75;;;;;;;24.88;69.60;94391.50;1636250;86;21013;-59
2022/07/30 09:39:37;;;;;;;13.80;8.98;;;;;;;24.88;69.98;94390.09;1660192;86;20999;-58
2022/07/30 09:42:25;;;;;;;15.55;9.33;;;;;;;24.97;70.65;94385.41;1573453;85;22430;-58
2022/07/30 09:45:11;;;;;;;10.53;9.35;;;;;;;25.07;70.70;94368.11;1631980;86;21106;-60
2022/07/30 09:47:43;;;;;;;10.70;8.80;;;;;;;25.24;69.28;94368.47;1648129;86;20969;-59
2022/07/30 09:50:17;;;;;;;9.03;8.05;;;;;;;25.36;67.69;94368.29;1651263;86;21030;-58
2022/07/30 09:52:46;;;;;;;16.02;8.55;;;;;;;25.46;66.86;94370.72;1634424;85;21034;-59
2022/07/30 09:55:17;;;;;;;11.30;8.05;;;;;;;25.59;66.27;94364.97;1670590;84;21148;-59
2022/07/30 09:57:58;;;;;;;16.10;12.00;;;;;;;25.63;65.65;94363.98;1658113;85;21014;-58
2022/07/30 10:00:29;;;;;;;13.48;10.88;;;;;;;25.77;66.53;94368.17;1639368;86;20975;-59
2022/07/30 10:03:02;;;;;;;12.75;10.15;;;;;;;26.00;64.39;94367.78;1675956;84;21521;-58
2022/07/30 10:05:59;;;;;;;13.98;9.40;;;;;;;26.20;63.38;94360.52;1678475;85;20959;-59
2022/07/30 10:08:47;;;;;;;9.98;7.95;;;;;;;26.37;61.56;94360.13;1669675;84;21120;-60
2022/07/30 10:11:18;;;;;;;15.15;8.75;;;;;;;26.48;61.19;94364.03;1671697;84;21026;-59
2022/07/30 10:13:49;;;;;;;9.85;8.85;;;;;;;26.58;61.63;94365.02;1647311;85;21101;-59
2022/07/30 10:16:18;;;;;;;11.15;8.55;;;;;;;26.70;61.57;94371.80;1645358;85;20995;-59
2022/07/30 10:18:48;;;;;;;16.42;8.60;;;;;;;26.83;61.26;94371.64;1631266;86;20967;-59
2022/07/30 10:21:33;;;;;;;9.90;7.87;;;;;;;26.99;61.72;94375.23;1616245;87;21457;-59
2022/07/30 10:24:05;;;;;;;8.63;7.67;;;;;;;27.21;61.88;94368.22;1627022;85;21027;-61
2022/07/30 10:26:48;;;;;;;14.25;9.05;;;;;;;27.45;61.20;94364.84;1619784;86;21038;-58
2022/07/30 10:29:37;;;;;;;10.15;9.13;;;;;;;27.79;61.50;94362.34;1607507;88;21612;-59
2022/07/30 10:32:06;;;;;;;9.55;8.55;;;;;;;28.10;59.65;94355.28;1650379;85;21571;-61
2022/07/30 10:34:35;;;;;;;8.10;6.65;;;;;;;28.32;58.27;94354.47;1648660;84;21129;-59
2022/07/30 10:37:04;;;;;;;7.15;6.45;;;;;;;28.40;54.45;94339.63;1641727;85;21267;-62
2022/07/30 10:39:38;;;;;;;7.85;5.67;;;;;;;28.33;53.09;94339.75;1660948;85;21280;-58
2022/07/30 10:42:42;;;;;;;8.73;5.30;;;;;;;28.26;51.38;94334.84;1642519;86;21546;-58
2022/07/30 10:45:28;;;;;;;9.35;6.30;;;;;;;28.22;49.98;94326.67;1643381;85;21033;-60
2022/07/30 10:47:58;;;;;;;7.17;6.50;;;;;;;28.40;50.11;94318.41;1665652;84;21228;-58
2022/07/30 10:50:26;;;;;;;6.90;6.20;;;;;;;28.56;51.32;94315.58;1658459;85;21035;-58
2022/07/30 10:53:00;;;;;;;14.20;6.12;;;;;;;28.76;50.18;94311.68;1666045;84;21482;-59
2022/07/30 10:55:33;;;;;;;6.58;5.95;;;;;;;28.89;47.14;94313.59;1665154;84;21011;-59
2022/07/30 10:58:07;;;;;;;6.55;5.55;;;;;;;28.99;47.01;94308.78;1636505;86;21015;-59
2022/07/30 11:00:57;;;;;;;6.28;5.67;;;;;;;29.28;47.07;94307.72;1650365;85;21271;-59
2022/07/30 11:03:30;;;;;;;11.10;5.42;;;;;;;29.80;47.99;94303.61;1652492;86;21011;-59
2022/07/30 11:06:19;;;;;;;6.30;5.70;;;;;;;30.47;46.26;94306.41;1668048;85;20990;-58
2022/07/30 11:08:49;;;;;;;6.10;5.25;;;;;;;31.09;43.97;94312.08;1668976;83;21026;-60
2022/07/30 11:11:29;;;;;;;6.55;5.95;;;;;;;31.71;43.98;94316.28;1665955;84;21110;-59
2022/07/30 11:13:59;;;;;;;10.05;5.85;;;;;;;32.29;42.09;94313.57;1665629;84;21908;-59
2022/07/30 11:16:37;;;;;;;7.33;5.55;;;;;;;32.84;42.28;94316.20;1672569;84;21198;-59
2022/07/30 11:19:23;;;;;;;8.38;5.60;;;;;;;33.32;40.84;94312.55;1659567;85;21039;-59
2022/07/30 11:21:48;;;;;;;10.55;6.12;;;;;;;33.60;38.97;94305.92;1686178;84;21026;-59
2022/07/30 11:24:45;;;;;;;7.72;5.65;;;;;;;33.92;38.65;94305.30;1638188;85;21022;-60
2022/07/30 11:27:45;;;;;;;6.83;6.05;;;;;;;34.11;38.81;94292.37;1686511;85;21695;-60
2022/07/30 11:30:22;;;;;;;7.35;5.40;;;;;;;34.25;39.04;94287.63;1610667;87;21084;-60
2022/07/30 11:33:06;;;;;;;6.20;5.60;;;;;;;34.46;39.19;94279.02;1655982;86;21007;-60
2022/07/30 11:35:36;;;;;;;5.78;5.20;;;;;;;34.64;37.30;94275.90;1667954;84;20994;-59
2022/07/30 11:38:19;;;;;;;7.10;5.47;;;;;;;34.87;37.89;94275.23;1662567;84;21074;-59
2022/07/30 11:40:53;;;;;;;5.97;5.20;;;;;;;35.23;37.92;94266.84;1643775;85;21251;-60
2022/07/30 11:43:32;;;;;;;22.65;11.18;;;;;;;35.68;36.97;94258.20;1631313;86;21078;-60
2022/07/30 11:46:22;;;;;;;6.45;5.83;;;;;;;36.04;36.38;94256.05;1671616;85;21034;-58
2022/07/30 11:48:57;;;;;;;6.08;5.35;;;;;;;36.33;36.23;94238.47;1679118;84;21274;-61
2022/07/30 11:51:25;;;;;;;9.23;5.87;;;;;;;36.55;34.39;94241.86;1654348;86;21156;-60
2022/07/30 11:54:03;;;;;;;6.75;6.10;;;;;;;36.28;35.07;94237.42;1652641;85;21169;-60